Terminal Aerodrome Forecast
Issued by NWS

Home | Current Version | Previous Version | Text Only | Print | Product List | Glossary On
Versions: 1 2 3 4 5 6 7 8 9 10 11 12 13 14 15 16 17 18 19 20 21 22 23 24
000
FTUS43 KPAH 141120
TAFCGI
TAF
KCGI 141120Z 1412/1512 14004KT P6SM VCSH BKN045
      TEMPO 1415/1417 -SHRA FEW015 OVC040
     FM141900 16003KT P6SM BKN030
     FM150100 20004KT P6SM FEW020 SCT250
     FM150700 24001KT 4SM BR SCT015=

USA.gov is the U.S. government's official web portal to all federal, state and local government web resources and services.